createdAt,value
2018-06-30T00:00:28.400Z,0
2018-06-30T00:01:28.406Z,0
2018-06-30T00:02:28.138Z,0
2018-06-30T00:03:28.383Z,0
2018-06-30T00:04:28.127Z,0
2018-06-30T00:05:28.133Z,0
2018-06-30T00:06:28.130Z,0
2018-06-30T00:07:27.850Z,0
2018-06-30T00:08:27.593Z,0
2018-06-30T00:09:27.578Z,0
2018-06-30T00:10:27.984Z,0
2018-06-30T00:11:28.342Z,0
2018-06-30T00:12:28.341Z,0
2018-06-30T00:13:28.076Z,0
2018-06-30T00:14:27.817Z,0
2018-06-30T00:15:28.068Z,0
2018-06-30T00:16:28.332Z,0
2018-06-30T00:17:28.304Z,0
2018-06-30T00:18:27.799Z,0
2018-06-30T00:19:28.037Z,0
2018-06-30T00:20:28.356Z,0
2018-06-30T00:21:27.780Z,0
2018-06-30T00:22:28.280Z,0
2018-06-30T00:23:28.268Z,0
2018-06-30T00:24:27.755Z,0
2018-06-30T00:25:27.770Z,0
2018-06-30T00:26:28.005Z,0
2018-06-30T00:27:27.740Z,0
2018-06-30T00:28:28.251Z,0
2018-06-30T00:29:27.989Z,0
2018-06-30T00:30:28.247Z,0
2018-06-30T00:31:27.982Z,0
2018-06-30T00:32:27.970Z,0
2018-06-30T00:33:28.221Z,0
2018-06-30T00:34:27.960Z,0
2018-06-30T00:35:28.214Z,0
2018-06-30T00:36:27.953Z,0
2018-06-30T00:37:27.938Z,0
2018-06-30T00:38:27.844Z,0
2018-06-30T00:39:27.940Z,0
2018-06-30T00:40:27.927Z,0
2018-06-30T00:41:27.921Z,0
2018-06-30T00:42:27.910Z,0
2018-06-30T00:43:28.169Z,0
2018-06-30T00:44:27.656Z,0
2018-06-30T00:45:28.170Z,0
2018-06-30T00:46:28.156Z,0
2018-06-30T00:47:28.142Z,0
2018-06-30T00:48:27.633Z,0
2018-06-30T00:49:28.149Z,0
2018-06-30T00:50:28.129Z,0
2018-06-30T00:51:27.869Z,0
2018-06-30T00:52:28.168Z,0
2018-06-30T00:53:28.102Z,0
2018-06-30T00:54:28.106Z,0
2018-06-30T00:55:28.095Z,0
2018-06-30T00:56:28.097Z,0
2018-06-30T00:57:27.830Z,0
2018-06-30T00:58:27.825Z,0
2018-06-30T00:59:27.816Z,0
2018-06-30T01:00:28.075Z,0
2018-06-30T01:01:27.807Z,0
2018-06-30T01:02:28.057Z,0
2018-06-30T01:03:27.800Z,0
2018-06-30T01:04:28.047Z,0
2018-06-30T01:05:28.102Z,0
2018-06-30T01:06:27.523Z,0
2018-06-30T01:07:28.028Z,0
2018-06-30T01:08:27.510Z,0
2018-06-30T01:09:28.029Z,0
2018-06-30T01:10:28.018Z,0
2018-06-30T01:11:28.005Z,0
2018-06-30T01:12:28.004Z,0
2018-06-30T01:13:27.737Z,0
2018-06-30T01:14:27.736Z,0
2018-06-30T01:15:27.982Z,0
2018-06-30T01:16:27.984Z,0
2018-06-30T01:17:27.973Z,0
2018-06-30T01:18:27.706Z,0
2018-06-30T01:19:27.709Z,0
2018-06-30T01:20:27.968Z,0
2018-06-30T01:21:27.955Z,0
2018-06-30T01:22:27.959Z,0
2018-06-30T01:23:27.689Z,0
2018-06-30T01:24:27.678Z,0
2018-06-30T01:25:27.408Z,0
2018-06-30T01:26:27.403Z,0
2018-06-30T01:27:27.914Z,0
2018-06-30T01:28:27.904Z,0
2018-06-30T01:29:27.396Z,0
2018-06-30T01:30:27.637Z,0
2018-06-30T01:31:27.629Z,0
2018-06-30T01:32:27.891Z,0
2018-06-30T01:33:27.875Z,0
2018-06-30T01:34:27.867Z,0
2018-06-30T01:35:27.867Z,0
2018-06-30T01:36:27.605Z,0
2018-06-30T01:37:27.597Z,0
2018-06-30T01:38:27.847Z,0
2018-06-30T01:39:27.845Z,0
2018-06-30T01:40:27.576Z,0
2018-06-30T01:41:27.826Z,0
2018-06-30T01:42:27.822Z,0
2018-06-30T01:43:27.820Z,0
2018-06-30T01:44:27.819Z,0
2018-06-30T01:45:27.549Z,0
2018-06-30T01:46:27.794Z,0
2018-06-30T01:47:27.283Z,0
2018-06-30T01:48:26.763Z,0
2018-06-30T01:49:27.269Z,0
2018-06-30T01:50:27.519Z,0
2018-06-30T01:51:27.509Z,0
2018-06-30T01:52:27.773Z,0
2018-06-30T01:53:27.493Z,0
2018-06-30T01:54:27.745Z,0
2018-06-30T01:55:27.740Z,0
2018-06-30T01:56:27.484Z,0
2018-06-30T01:57:27.732Z,0
2018-06-30T01:58:27.466Z,0
2018-06-30T01:59:27.714Z,0
2018-06-30T02:00:27.707Z,0
2018-06-30T02:01:27.453Z,0
2018-06-30T02:02:27.701Z,0
2018-06-30T02:03:27.706Z,0
2018-06-30T02:04:27.425Z,0
2018-06-30T02:05:27.164Z,0
2018-06-30T02:06:27.423Z,0
2018-06-30T02:07:27.668Z,0
2018-06-30T02:08:27.407Z,0
2018-06-30T02:09:27.658Z,0
2018-06-30T02:10:27.391Z,0
2018-06-30T02:11:27.381Z,0
2018-06-30T02:12:26.868Z,0
2018-06-30T02:13:27.624Z,0
2018-06-30T02:14:27.112Z,0
2018-06-30T02:15:27.361Z,0
2018-06-30T02:16:27.352Z,0
2018-06-30T02:17:27.601Z,0
2018-06-30T02:18:27.596Z,0
2018-06-30T02:19:27.603Z,0
2018-06-30T02:20:27.393Z,0
2018-06-30T02:21:27.073Z,0
2018-06-30T02:22:27.585Z,0
2018-06-30T02:23:27.563Z,0
2018-06-30T02:24:27.310Z,0
2018-06-30T02:25:27.294Z,0
2018-06-30T02:26:27.038Z,0
2018-06-30T02:27:27.316Z,0
2018-06-30T02:28:27.542Z,0
2018-06-30T02:29:27.068Z,0
2018-06-30T02:30:27.540Z,0
2018-06-30T02:31:27.264Z,0
2018-06-30T02:32:27.263Z,0
2018-06-30T02:33:27.260Z,0
2018-06-30T02:34:27.000Z,0
2018-06-30T02:35:27.500Z,0
2018-06-30T02:36:27.239Z,0
2018-06-30T02:37:27.490Z,0
2018-06-30T02:38:26.976Z,0
2018-06-30T02:39:27.549Z,0
2018-06-30T02:40:27.213Z,0
2018-06-30T02:41:27.469Z,0
2018-06-30T02:42:26.951Z,0
2018-06-30T02:43:27.198Z,0
2018-06-30T02:44:26.931Z,0
2018-06-30T02:45:27.178Z,0
2018-06-30T02:46:27.242Z,0
2018-06-30T02:47:27.428Z,0
2018-06-30T02:48:27.176Z,0
2018-06-30T02:49:26.907Z,0
2018-06-30T02:50:27.420Z,0
2018-06-30T02:51:27.415Z,0
2018-06-30T02:52:27.384Z,0
2018-06-30T02:53:27.403Z,0
2018-06-30T02:54:27.135Z,0
2018-06-30T02:55:27.125Z,0
2018-06-30T02:56:27.387Z,0
2018-06-30T02:57:27.107Z,0
2018-06-30T02:58:27.102Z,0
2018-06-30T02:59:27.123Z,0
2018-06-30T03:00:27.357Z,0
2018-06-30T03:01:26.839Z,0
2018-06-30T03:02:27.084Z,0
2018-06-30T03:03:27.334Z,0
2018-06-30T03:04:26.811Z,0
2018-06-30T03:05:27.070Z,0
2018-06-30T03:06:27.152Z,0
2018-06-30T03:07:27.050Z,0
2018-06-30T03:08:27.091Z,0
2018-06-30T03:09:27.102Z,0
2018-06-30T03:10:27.327Z,0
2018-06-30T03:11:27.029Z,0
2018-06-30T03:12:27.020Z,5
2018-06-30T03:13:27.012Z,5
2018-06-30T03:14:27.017Z,5
2018-06-30T03:15:26.757Z,5
2018-06-30T03:16:27.263Z,5
2018-06-30T03:17:26.992Z,5
2018-06-30T03:18:27.242Z,5
2018-06-30T03:19:26.734Z,5
2018-06-30T03:20:27.227Z,5
2018-06-30T03:21:27.235Z,5
2018-06-30T03:22:27.218Z,5
2018-06-30T03:23:27.231Z,5
2018-06-30T03:24:27.206Z,5
2018-06-30T03:25:27.199Z,5
2018-06-30T03:26:27.198Z,5
2018-06-30T03:27:27.196Z,5
2018-06-30T03:28:26.929Z,5
2018-06-30T03:29:27.000Z,5
2018-06-30T03:30:26.910Z,5
2018-06-30T03:31:27.072Z,5
2018-06-30T03:32:26.897Z,5
2018-06-30T03:33:27.158Z,5
2018-06-30T03:34:27.138Z,5
2018-06-30T03:35:27.143Z,5
2018-06-30T03:36:26.878Z,10
2018-06-30T03:37:26.878Z,10
2018-06-30T03:38:27.130Z,10
2018-06-30T03:39:26.359Z,10
2018-06-30T03:40:26.861Z,10
2018-06-30T03:41:27.114Z,10
2018-06-30T03:42:27.107Z,10
2018-06-30T03:43:26.832Z,10
2018-06-30T03:44:26.569Z,10
2018-06-30T03:45:27.077Z,10
2018-06-30T03:46:26.986Z,10
2018-06-30T03:47:26.812Z,10
2018-06-30T03:48:27.059Z,10
2018-06-30T03:49:27.053Z,10
2018-06-30T03:50:27.050Z,10
2018-06-30T03:51:27.040Z,15
2018-06-30T03:52:27.027Z,15
2018-06-30T03:53:27.024Z,20
2018-06-30T03:54:26.763Z,20
2018-06-30T03:55:26.760Z,25
2018-06-30T03:56:27.014Z,25
2018-06-30T03:57:27.014Z,25
2018-06-30T03:58:26.742Z,25
2018-06-30T03:59:26.737Z,20
2018-06-30T04:00:26.985Z,25
2018-06-30T04:01:26.976Z,25
2018-06-30T04:02:26.976Z,25
2018-06-30T04:03:27.401Z,30
2018-06-30T04:04:26.964Z,25
2018-06-30T04:05:26.439Z,30
2018-06-30T04:06:26.958Z,25
2018-06-30T04:07:26.703Z,30
2018-06-30T04:08:26.691Z,35
2018-06-30T04:09:26.682Z,35
2018-06-30T04:10:26.420Z,35
2018-06-30T04:11:26.917Z,35
2018-06-30T04:12:25.891Z,40
2018-06-30T04:13:26.651Z,45
2018-06-30T04:14:26.655Z,45
2018-06-30T04:15:26.645Z,45
2018-06-30T04:16:26.640Z,45
2018-06-30T04:17:26.374Z,55
2018-06-30T04:18:26.875Z,60
2018-06-30T04:19:26.868Z,55
2018-06-30T04:20:26.881Z,60
2018-06-30T04:21:26.596Z,75
2018-06-30T04:22:26.594Z,115
2018-06-30T04:23:26.335Z,135
2018-06-30T04:24:26.837Z,140
2018-06-30T04:25:26.342Z,120
2018-06-30T04:26:26.573Z,70
2018-06-30T04:27:26.570Z,50
2018-06-30T04:28:26.837Z,50
2018-06-30T04:29:26.545Z,60
2018-06-30T04:30:26.297Z,65
2018-06-30T04:31:26.798Z,75
2018-06-30T04:32:26.795Z,70
2018-06-30T04:33:26.779Z,80
2018-06-30T04:34:26.529Z,75
2018-06-30T04:35:26.768Z,70
2018-06-30T04:36:26.772Z,65
2018-06-30T04:37:26.765Z,65
2018-06-30T04:38:26.253Z,65
2018-06-30T04:39:26.492Z,55
2018-06-30T04:40:26.739Z,65
2018-06-30T04:41:26.737Z,65
2018-06-30T04:42:26.755Z,55
2018-06-30T04:43:26.475Z,50
2018-06-30T04:44:26.718Z,60
2018-06-30T04:45:26.994Z,65
2018-06-30T04:46:26.702Z,55
2018-06-30T04:47:26.450Z,50
2018-06-30T04:48:26.695Z,60
2018-06-30T04:49:26.431Z,75
2018-06-30T04:50:26.427Z,105
2018-06-30T04:51:26.427Z,100
2018-06-30T04:52:26.665Z,115
2018-06-30T04:53:26.404Z,75
2018-06-30T04:54:26.396Z,65
2018-06-30T04:55:26.397Z,65
2018-06-30T04:56:26.386Z,70
2018-06-30T04:57:26.130Z,60
2018-06-30T04:58:26.636Z,55
2018-06-30T04:59:26.371Z,85
2018-06-30T05:00:26.363Z,80
2018-06-30T05:01:26.354Z,65
2018-06-30T05:02:26.647Z,65
2018-06-30T05:03:26.353Z,70
2018-06-30T05:04:26.085Z,60
2018-06-30T05:05:26.619Z,55
2018-06-30T05:06:26.071Z,65
2018-06-30T05:07:26.583Z,85
2018-06-30T05:08:26.570Z,105
2018-06-30T05:09:26.314Z,105
2018-06-30T05:10:26.568Z,105
2018-06-30T05:11:26.050Z,120
2018-06-30T05:12:26.292Z,125
2018-06-30T05:13:26.547Z,110
2018-06-30T05:14:26.280Z,130
2018-06-30T05:15:26.277Z,130
2018-06-30T05:16:26.008Z,115
2018-06-30T05:17:26.525Z,120
2018-06-30T05:18:26.504Z,120
2018-06-30T05:19:26.502Z,90
2018-06-30T05:20:26.262Z,125
2018-06-30T05:21:26.503Z,125
2018-06-30T05:22:26.492Z,80
2018-06-30T05:23:26.488Z,90
2018-06-30T05:24:25.982Z,140
2018-06-30T05:25:26.221Z,160
2018-06-30T05:26:26.470Z,100
2018-06-30T05:27:26.204Z,110
2018-06-30T05:28:25.943Z,100
2018-06-30T05:29:26.462Z,95
2018-06-30T05:30:26.448Z,90
2018-06-30T05:31:26.185Z,115
2018-06-30T05:32:26.179Z,110
2018-06-30T05:33:26.651Z,130
2018-06-30T05:34:26.423Z,160
2018-06-30T05:35:26.160Z,220
2018-06-30T05:36:26.157Z,210
2018-06-30T05:37:26.404Z,185
2018-06-30T05:38:26.407Z,180
2018-06-30T05:39:26.400Z,220
2018-06-30T05:40:26.396Z,180
2018-06-30T05:41:26.508Z,190
2018-06-30T05:42:26.126Z,260
2018-06-30T05:43:26.378Z,325
2018-06-30T05:44:26.105Z,350
2018-06-30T05:45:26.113Z,290
2018-06-30T05:46:26.361Z,320
2018-06-30T05:47:26.094Z,280
2018-06-30T05:48:26.090Z,310
2018-06-30T05:49:26.084Z,275
2018-06-30T05:50:26.090Z,220
2018-06-30T05:51:26.077Z,235
2018-06-30T05:52:26.328Z,215
2018-06-30T05:53:26.451Z,210
2018-06-30T05:54:25.811Z,245
2018-06-30T05:55:26.057Z,255
2018-06-30T05:56:25.804Z,360
2018-06-30T05:57:26.064Z,240
2018-06-30T05:58:25.786Z,245
2018-06-30T05:59:26.157Z,240
2018-06-30T06:00:25.779Z,220
2018-06-30T06:01:25.797Z,235
2018-06-30T06:02:26.285Z,275
2018-06-30T06:03:26.276Z,250
2018-06-30T06:04:26.017Z,225
2018-06-30T06:05:26.281Z,240
2018-06-30T06:06:26.254Z,300
2018-06-30T06:07:26.003Z,225
2018-06-30T06:08:26.259Z,220
2018-06-30T06:09:25.994Z,270
2018-06-30T06:10:26.001Z,215
2018-06-30T06:11:26.240Z,185
2018-06-30T06:12:25.977Z,375
2018-06-30T06:13:26.233Z,340
2018-06-30T06:14:26.238Z,285
2018-06-30T06:15:26.772Z,315
2018-06-30T06:16:25.965Z,250
2018-06-30T06:17:25.993Z,400
2018-06-30T06:18:25.960Z,380
2018-06-30T06:19:26.204Z,305
2018-06-30T06:20:26.208Z,335
2018-06-30T06:21:25.852Z,330
2018-06-30T06:22:26.203Z,235
2018-06-30T06:23:25.670Z,235
2018-06-30T06:24:25.927Z,235
2018-06-30T06:25:25.923Z,310
2018-06-30T06:26:26.178Z,295
2018-06-30T06:27:26.301Z,370
2018-06-30T06:28:25.956Z,260
2018-06-30T06:29:25.909Z,315
2018-06-30T06:30:26.159Z,260
2018-06-30T06:31:26.148Z,245
2018-06-30T06:32:25.901Z,260
2018-06-30T06:33:25.888Z,225
2018-06-30T06:34:25.419Z,265
2018-06-30T06:35:25.882Z,280
2018-06-30T06:36:26.135Z,285
2018-06-30T06:37:26.133Z,325
2018-06-30T06:38:26.117Z,230
2018-06-30T06:39:25.862Z,200
2018-06-30T06:40:25.860Z,230
2018-06-30T06:41:25.594Z,300
2018-06-30T06:42:26.112Z,385
2018-06-30T06:43:26.102Z,420
2018-06-30T06:44:26.097Z,430
2018-06-30T06:45:25.847Z,450
2018-06-30T06:46:25.837Z,455
2018-06-30T06:47:26.093Z,430
2018-06-30T06:48:26.090Z,415
2018-06-30T06:49:25.831Z,435
2018-06-30T06:50:25.822Z,460
2018-06-30T06:51:26.077Z,485
2018-06-30T06:52:26.081Z,500
2018-06-30T06:53:26.069Z,455
2018-06-30T06:54:25.812Z,450
2018-06-30T06:55:25.815Z,470
2018-06-30T06:56:25.928Z,490
2018-06-30T06:57:25.818Z,490
2018-06-30T06:58:26.073Z,500
2018-06-30T06:59:25.814Z,525
2018-06-30T07:00:25.810Z,555
2018-06-30T07:01:25.810Z,510
2018-06-30T07:02:26.065Z,470
2018-06-30T07:03:25.812Z,475
2018-06-30T07:04:25.556Z,480
2018-06-30T07:05:26.068Z,480
2018-06-30T07:06:26.081Z,485
2018-06-30T07:07:25.821Z,490
2018-06-30T07:08:26.070Z,490
2018-06-30T07:09:25.821Z,490
2018-06-30T07:10:26.075Z,495
2018-06-30T07:11:25.822Z,495
2018-06-30T07:12:25.830Z,485
2018-06-30T07:13:25.825Z,480
2018-06-30T07:14:26.089Z,480
2018-06-30T07:15:26.100Z,480
2018-06-30T07:16:26.107Z,485
2018-06-30T07:17:25.834Z,490
2018-06-30T07:18:26.104Z,500
2018-06-30T07:19:25.995Z,495
2018-06-30T07:20:26.103Z,490
2018-06-30T07:21:25.850Z,490
2018-06-30T07:22:26.113Z,510
2018-06-30T07:23:25.796Z,510
2018-06-30T07:24:25.606Z,515
2018-06-30T07:25:25.359Z,510
2018-06-30T07:26:26.127Z,510
2018-06-30T07:27:26.282Z,510
2018-06-30T07:28:25.884Z,520
2018-06-30T07:29:25.879Z,515
2018-06-30T07:30:26.184Z,515
2018-06-30T07:31:25.640Z,510
2018-06-30T07:32:25.906Z,520
2018-06-30T07:33:25.646Z,535
2018-06-30T07:34:25.634Z,535
2018-06-30T07:35:25.895Z,535
2018-06-30T07:36:26.163Z,535
2018-06-30T07:37:25.943Z,530
2018-06-30T07:38:25.659Z,535
2018-06-30T07:39:25.918Z,525
2018-06-30T07:40:25.924Z,520
2018-06-30T07:41:26.062Z,530
2018-06-30T07:42:25.927Z,540
2018-06-30T07:43:26.270Z,530
2018-06-30T07:44:26.134Z,525
2018-06-30T07:45:25.945Z,520
2018-06-30T07:46:25.950Z,510
2018-06-30T07:47:25.951Z,495
2018-06-30T07:48:25.953Z,490
2018-06-30T07:49:25.960Z,495
2018-06-30T07:50:26.293Z,495
2018-06-30T07:51:26.224Z,500
2018-06-30T07:52:26.231Z,485
2018-06-30T07:53:26.235Z,470
2018-06-30T07:54:26.236Z,460
2018-06-30T07:55:25.987Z,390
2018-06-30T07:56:26.247Z,295
2018-06-30T07:57:26.264Z,220
2018-06-30T07:58:26.250Z,190
2018-06-30T07:59:26.002Z,180
2018-06-30T08:00:25.752Z,170
2018-06-30T08:01:26.281Z,165
2018-06-30T08:02:25.770Z,160
2018-06-30T08:03:26.022Z,155
2018-06-30T08:04:25.772Z,155
2018-06-30T08:05:26.026Z,150
2018-06-30T08:06:26.296Z,145
2018-06-30T08:07:25.957Z,145
2018-06-30T08:08:26.045Z,145
2018-06-30T08:09:26.061Z,145
2018-06-30T08:10:26.044Z,145
2018-06-30T08:11:26.050Z,140
2018-06-30T08:12:26.314Z,140
2018-06-30T08:13:26.070Z,140
2018-06-30T08:14:26.314Z,140
2018-06-30T08:15:26.064Z,140
2018-06-30T08:16:26.327Z,140
2018-06-30T08:17:25.557Z,140
2018-06-30T08:18:26.332Z,135
2018-06-30T08:19:26.331Z,135
2018-06-30T08:20:25.821Z,135
2018-06-30T08:21:25.984Z,135
2018-06-30T08:22:26.075Z,140
2018-06-30T08:23:25.836Z,135
2018-06-30T08:24:26.330Z,135
2018-06-30T08:25:26.077Z,135
2018-06-30T08:26:26.342Z,135
2018-06-30T08:27:26.082Z,135
2018-06-30T08:28:26.073Z,135
2018-06-30T08:29:26.145Z,135
2018-06-30T08:30:26.342Z,135
2018-06-30T08:31:26.337Z,130
2018-06-30T08:32:26.087Z,130
2018-06-30T08:33:26.081Z,130
2018-06-30T08:34:26.333Z,130
2018-06-30T08:35:26.347Z,130
2018-06-30T08:36:26.411Z,130
2018-06-30T08:37:26.087Z,130
2018-06-30T08:38:25.829Z,130
2018-06-30T08:39:26.081Z,130
2018-06-30T08:40:26.336Z,130
2018-06-30T08:41:26.081Z,130
2018-06-30T08:42:26.339Z,130
2018-06-30T08:43:26.334Z,130
2018-06-30T08:44:26.342Z,130
2018-06-30T08:45:25.824Z,130
2018-06-30T08:46:26.340Z,130
2018-06-30T08:47:26.066Z,130
2018-06-30T08:48:26.067Z,130
2018-06-30T08:49:26.071Z,130
2018-06-30T08:50:26.076Z,130
2018-06-30T08:51:25.822Z,130
2018-06-30T08:52:26.067Z,130
2018-06-30T08:53:26.329Z,130
2018-06-30T08:54:26.316Z,130
2018-06-30T08:55:26.292Z,130
2018-06-30T08:56:26.058Z,130
2018-06-30T08:57:25.801Z,130
2018-06-30T08:58:26.316Z,130
2018-06-30T08:59:25.800Z,130
2018-06-30T09:00:26.048Z,130
2018-06-30T09:01:25.535Z,130
2018-06-30T09:02:26.045Z,130
2018-06-30T09:03:26.303Z,130
2018-06-30T09:04:26.054Z,130
2018-06-30T09:05:25.790Z,130
2018-06-30T09:06:26.761Z,130
2018-06-30T09:07:25.787Z,130
2018-06-30T09:08:26.037Z,130
2018-06-30T09:09:26.038Z,130
2018-06-30T09:10:26.041Z,130
2018-06-30T09:11:26.026Z,130
2018-06-30T09:12:25.790Z,130
2018-06-30T09:13:26.289Z,125
2018-06-30T09:14:26.270Z,125
2018-06-30T09:15:26.275Z,125
2018-06-30T09:16:26.126Z,125
2018-06-30T09:17:25.758Z,125
2018-06-30T09:18:26.285Z,125
2018-06-30T09:19:26.271Z,125
2018-06-30T09:20:26.266Z,125
2018-06-30T09:21:26.018Z,125
2018-06-30T09:22:26.011Z,125
2018-06-30T09:23:25.755Z,125
2018-06-30T09:24:26.131Z,130
2018-06-30T09:25:25.998Z,125
2018-06-30T09:26:26.000Z,125
2018-06-30T09:27:25.732Z,125
2018-06-30T09:28:26.256Z,125
2018-06-30T09:29:25.732Z,125
2018-06-30T09:30:25.728Z,125
2018-06-30T09:31:25.724Z,125
2018-06-30T09:32:26.232Z,125
2018-06-30T09:33:25.985Z,125
2018-06-30T09:34:26.231Z,125
2018-06-30T09:35:26.238Z,125
2018-06-30T09:36:25.453Z,125
2018-06-30T09:37:25.715Z,125
2018-06-30T09:38:25.968Z,125
2018-06-30T09:39:25.964Z,125
2018-06-30T09:40:25.455Z,125
2018-06-30T09:41:26.221Z,125
2018-06-30T09:42:25.954Z,125
2018-06-30T09:43:25.697Z,125
2018-06-30T09:44:26.550Z,125
2018-06-30T09:45:26.207Z,125
2018-06-30T09:46:25.698Z,125
2018-06-30T09:47:25.957Z,125
2018-06-30T09:48:25.952Z,125
2018-06-30T09:49:26.202Z,125
2018-06-30T09:50:26.199Z,125
2018-06-30T09:51:25.943Z,125
2018-06-30T09:52:26.191Z,125
2018-06-30T09:53:26.187Z,125
2018-06-30T09:54:25.934Z,125
2018-06-30T09:55:25.926Z,130
2018-06-30T09:56:26.185Z,130
2018-06-30T09:57:25.923Z,125
2018-06-30T09:58:25.923Z,125
2018-06-30T09:59:26.176Z,125
2018-06-30T10:00:25.677Z,125
2018-06-30T10:01:25.653Z,125
2018-06-30T10:02:25.923Z,125
2018-06-30T10:03:25.650Z,125
2018-06-30T10:04:25.655Z,125
2018-06-30T10:05:25.902Z,125
2018-06-30T10:06:25.910Z,125
2018-06-30T10:07:26.163Z,125
2018-06-30T10:08:25.651Z,125
2018-06-30T10:09:25.643Z,125
2018-06-30T10:10:26.157Z,125
2018-06-30T10:11:26.154Z,125
2018-06-30T10:12:25.889Z,125
2018-06-30T10:13:25.631Z,125
2018-06-30T10:14:25.892Z,125
2018-06-30T10:15:25.880Z,125
2018-06-30T10:16:25.897Z,125
2018-06-30T10:17:25.940Z,125
2018-06-30T10:18:25.365Z,125
2018-06-30T10:19:26.050Z,125
2018-06-30T10:20:26.132Z,125
2018-06-30T10:21:26.083Z,125
2018-06-30T10:22:26.133Z,125
2018-06-30T10:23:25.611Z,125
2018-06-30T10:24:26.120Z,125
2018-06-30T10:25:26.123Z,125
2018-06-30T10:26:26.126Z,125
2018-06-30T10:27:25.601Z,125
2018-06-30T10:28:25.899Z,125
2018-06-30T10:29:26.117Z,125
2018-06-30T10:30:25.845Z,125
2018-06-30T10:31:26.123Z,125
2018-06-30T10:32:26.174Z,125
2018-06-30T10:33:26.101Z,125
2018-06-30T10:34:25.842Z,125
2018-06-30T10:35:25.843Z,125
2018-06-30T10:36:26.090Z,125
2018-06-30T10:37:26.289Z,125
2018-06-30T10:38:26.120Z,125
2018-06-30T10:39:25.831Z,125
2018-06-30T10:40:26.096Z,125
2018-06-30T10:41:25.313Z,125
2018-06-30T10:42:26.516Z,125
2018-06-30T10:43:26.083Z,125
2018-06-30T10:44:26.125Z,125
2018-06-30T10:45:26.080Z,125
2018-06-30T10:46:26.081Z,125
2018-06-30T10:47:57.925Z,125
2018-06-30T10:48:25.814Z,125
2018-06-30T10:49:25.819Z,125
2018-06-30T10:50:25.547Z,125
2018-06-30T10:51:26.065Z,125
2018-06-30T10:52:26.060Z,125
2018-06-30T10:53:25.810Z,125
2018-06-30T10:54:25.799Z,125
2018-06-30T10:55:25.694Z,125
2018-06-30T10:56:25.857Z,125
2018-06-30T10:57:25.547Z,125
2018-06-30T10:58:26.053Z,125
2018-06-30T10:59:26.044Z,125
2018-06-30T11:00:26.588Z,125
2018-06-30T11:01:25.530Z,125
2018-06-30T11:02:25.783Z,125
2018-06-30T11:03:25.790Z,125
2018-06-30T11:04:25.912Z,125
2018-06-30T11:05:25.945Z,125
2018-06-30T11:06:25.781Z,125
2018-06-30T11:07:26.026Z,125
2018-06-30T11:08:26.033Z,125
2018-06-30T11:09:26.030Z,125
2018-06-30T11:10:25.783Z,125
2018-06-30T11:11:25.766Z,125
2018-06-30T11:12:25.504Z,125
2018-06-30T11:13:26.022Z,125
2018-06-30T11:14:25.769Z,125
2018-06-30T11:15:25.509Z,125
2018-06-30T11:16:25.501Z,130
2018-06-30T11:17:26.018Z,125
2018-06-30T11:18:25.498Z,130
2018-06-30T11:19:25.501Z,125
2018-06-30T11:20:25.899Z,125
2018-06-30T11:21:25.238Z,125
2018-06-30T11:22:25.966Z,125
2018-06-30T11:23:25.742Z,125
2018-06-30T11:24:25.737Z,125
2018-06-30T11:25:26.057Z,125
2018-06-30T11:26:25.739Z,120
2018-06-30T11:27:25.732Z,120
2018-06-30T11:28:25.986Z,120
2018-06-30T11:29:26.197Z,120
2018-06-30T11:30:25.217Z,120
2018-06-30T11:31:25.730Z,120
2018-06-30T11:32:25.984Z,120
2018-06-30T11:33:25.987Z,120
2018-06-30T11:34:25.723Z,120
2018-06-30T11:35:25.721Z,120
2018-06-30T11:36:25.976Z,120
2018-06-30T11:37:25.966Z,120
2018-06-30T11:38:25.965Z,120
2018-06-30T11:39:25.971Z,120
2018-06-30T11:40:25.745Z,120
2018-06-30T11:41:25.706Z,120
2018-06-30T11:42:25.956Z,120
2018-06-30T11:43:25.955Z,120
2018-06-30T11:44:25.950Z,120
2018-06-30T11:45:25.704Z,120
2018-06-30T11:46:25.953Z,120
2018-06-30T11:47:25.946Z,120
2018-06-30T11:48:25.944Z,120
2018-06-30T11:49:25.943Z,120
2018-06-30T11:50:26.271Z,120
2018-06-30T11:51:25.682Z,120
2018-06-30T11:52:25.689Z,120
2018-06-30T11:53:25.937Z,120
2018-06-30T11:54:25.674Z,120
2018-06-30T11:55:25.940Z,120
2018-06-30T11:56:25.932Z,120
2018-06-30T11:57:25.412Z,120
2018-06-30T11:58:25.672Z,120
2018-06-30T11:59:25.412Z,120
2018-06-30T12:00:25.921Z,120
2018-06-30T12:01:25.912Z,120
2018-06-30T12:02:25.932Z,120
2018-06-30T12:03:25.466Z,120
2018-06-30T12:04:25.916Z,115
2018-06-30T12:05:25.651Z,115
2018-06-30T12:06:25.916Z,115
2018-06-30T12:07:25.908Z,115
2018-06-30T12:08:25.651Z,115
2018-06-30T12:09:25.687Z,115
2018-06-30T12:10:25.899Z,115
2018-06-30T12:11:25.388Z,115
2018-06-30T12:12:25.386Z,115
2018-06-30T12:13:25.386Z,115
2018-06-30T12:14:25.644Z,115
2018-06-30T12:15:25.895Z,115
2018-06-30T12:16:25.649Z,115
2018-06-30T12:17:25.634Z,115
2018-06-30T12:18:25.120Z,115
2018-06-30T12:19:25.627Z,115
2018-06-30T12:20:25.638Z,115
2018-06-30T12:21:25.880Z,115
2018-06-30T12:22:25.627Z,115
2018-06-30T12:23:25.623Z,115
2018-06-30T12:24:25.361Z,115
2018-06-30T12:25:25.886Z,115
2018-06-30T12:26:25.621Z,115
2018-06-30T12:27:25.883Z,115
2018-06-30T12:28:25.611Z,115
2018-06-30T12:29:25.865Z,115
2018-06-30T12:30:25.763Z,115
2018-06-30T12:31:25.856Z,115
2018-06-30T12:32:25.994Z,115
2018-06-30T12:33:25.345Z,115
2018-06-30T12:34:25.353Z,115
2018-06-30T12:35:25.597Z,115
2018-06-30T12:36:25.850Z,115
2018-06-30T12:37:25.855Z,115
2018-06-30T12:38:25.852Z,115
2018-06-30T12:39:25.595Z,115
2018-06-30T12:40:25.589Z,115
2018-06-30T12:41:25.329Z,115
2018-06-30T12:42:25.598Z,115
2018-06-30T12:43:25.340Z,115
2018-06-30T12:44:25.833Z,115
2018-06-30T12:45:25.596Z,115
2018-06-30T12:46:25.856Z,115
2018-06-30T12:47:25.585Z,115
2018-06-30T12:48:25.576Z,115
2018-06-30T12:49:25.577Z,115
2018-06-30T12:50:25.570Z,115
2018-06-30T12:51:25.564Z,115
2018-06-30T12:52:25.821Z,115
2018-06-30T12:53:25.567Z,115
2018-06-30T12:54:26.473Z,115
2018-06-30T12:55:25.585Z,115
2018-06-30T12:56:25.562Z,115
2018-06-30T12:57:25.864Z,115
2018-06-30T12:58:25.823Z,115
2018-06-30T12:59:25.552Z,115
2018-06-30T13:00:25.551Z,115
2018-06-30T13:01:25.294Z,115
2018-06-30T13:02:25.800Z,115
2018-06-30T13:03:25.551Z,115
2018-06-30T13:04:25.031Z,115
2018-06-30T13:05:25.807Z,115
2018-06-30T13:06:25.553Z,115
2018-06-30T13:07:25.796Z,115
2018-06-30T13:08:25.791Z,115
2018-06-30T13:09:25.976Z,115
2018-06-30T13:10:25.529Z,115
2018-06-30T13:11:25.843Z,115
2018-06-30T13:12:25.017Z,115
2018-06-30T13:13:25.529Z,115
2018-06-30T13:14:25.281Z,115
2018-06-30T13:15:25.527Z,115
2018-06-30T13:16:25.777Z,115
2018-06-30T13:17:25.777Z,115
2018-06-30T13:18:25.517Z,115
2018-06-30T13:19:25.265Z,115
2018-06-30T13:20:25.272Z,115
2018-06-30T13:21:25.254Z,115
2018-06-30T13:22:25.773Z,115
2018-06-30T13:23:26.093Z,115
2018-06-30T13:24:25.768Z,115
2018-06-30T13:25:25.504Z,115
2018-06-30T13:26:25.502Z,115
2018-06-30T13:27:25.814Z,115
2018-06-30T13:28:25.498Z,115
2018-06-30T13:29:25.769Z,115
2018-06-30T13:30:25.240Z,115
2018-06-30T13:31:25.493Z,115
2018-06-30T13:32:25.487Z,115
2018-06-30T13:33:25.497Z,115
2018-06-30T13:34:25.894Z,115
2018-06-30T13:35:24.977Z,115
2018-06-30T13:36:25.744Z,115
2018-06-30T13:37:25.223Z,115
2018-06-30T13:38:25.732Z,115
2018-06-30T13:39:25.739Z,115
2018-06-30T13:40:25.221Z,115
2018-06-30T13:41:25.731Z,120
2018-06-30T13:42:25.729Z,115
2018-06-30T13:43:25.346Z,115
2018-06-30T13:44:25.548Z,115
2018-06-30T13:45:25.466Z,115
2018-06-30T13:46:26.108Z,115
2018-06-30T13:47:25.205Z,115
2018-06-30T13:48:25.470Z,115
2018-06-30T13:49:25.457Z,115
2018-06-30T13:50:25.719Z,115
2018-06-30T13:51:25.457Z,115
2018-06-30T13:52:25.702Z,115
2018-06-30T13:53:25.448Z,115
2018-06-30T13:54:25.445Z,115
2018-06-30T13:55:25.454Z,115
2018-06-30T13:56:25.445Z,115
2018-06-30T13:57:25.766Z,115
2018-06-30T13:58:25.439Z,115
2018-06-30T13:59:25.527Z,115
2018-06-30T14:00:25.691Z,115
2018-06-30T14:01:25.695Z,115
2018-06-30T14:02:25.432Z,115
2018-06-30T14:03:25.689Z,115
2018-06-30T14:04:25.693Z,115